Time;durP1;ratioP1;P1;durP2;ratioP2;P2;SDS_P1;SDS_P2;PMS_P1;PMS_P2;Temp;Humidity;BMP_temperature;BMP_pressure;BME280_temperature;BME280_humidity;BME280_pressure;Samples;Min_cycle;Max_cycle;Signal;HPM_P1;HPM_P2
2024/01/15 00:04:38;;;;;;;0.60;0.60;;;;;;;2.60;100.00;100374.50;10429726;28;20116;-72
2024/01/15 00:09:39;;;;;;;0.75;0.75;;;;;;;2.43;100.00;100373.59;10413177;28;20126;-72
2024/01/15 00:14:40;;;;;;;1.77;1.77;;;;;;;2.30;100.00;100357.13;10413627;28;20129;-72
2024/01/15 00:19:41;;;;;;;0.70;0.70;;;;;;;2.32;100.00;100358.63;10414098;28;20107;-72
2024/01/15 00:24:41;;;;;;;0.70;0.70;;;;;;;2.29;100.00;100350.94;10428681;28;20069;-72
2024/01/15 00:29:42;;;;;;;0.70;0.70;;;;;;;2.40;100.00;100354.34;10412703;28;20353;-72
2024/01/15 00:34:42;;;;;;;0.80;0.80;;;;;;;2.59;100.00;100338.09;10412298;28;20044;-71
2024/01/15 00:39:43;;;;;;;0.80;0.80;;;;;;;2.54;100.00;100343.91;10411267;28;20049;-72
2024/01/15 00:44:43;;;;;;;0.70;0.70;;;;;;;2.48;100.00;100341.84;10412166;28;20453;-72
2024/01/15 00:49:44;;;;;;;0.80;0.80;;;;;;;2.49;100.00;100334.69;10412024;28;20035;-72
2024/01/15 00:54:44;;;;;;;0.60;0.60;;;;;;;2.61;100.00;100332.56;10428788;28;20030;-71
2024/01/15 00:59:45;;;;;;;0.60;0.60;;;;;;;2.70;100.00;100327.09;10411849;28;20026;-71
2024/01/15 01:04:45;;;;;;;1.90;1.83;;;;;;;2.70;100.00;100321.75;10427223;28;20112;-72
2024/01/15 01:09:47;;;;;;;0.70;0.70;;;;;;;2.64;100.00;100316.22;10428032;28;20295;-72
2024/01/15 01:14:48;;;;;;;0.80;0.80;;;;;;;2.71;100.00;100315.44;10412552;28;20029;-70
2024/01/15 01:19:49;;;;;;;0.80;0.80;;;;;;;2.94;100.00;100320.19;10411630;28;20026;-69
2024/01/15 01:24:50;;;;;;;0.90;0.90;;;;;;;2.94;100.00;100317.50;10411607;28;20025;-70
2024/01/15 01:29:50;;;;;;;0.70;0.70;;;;;;;2.80;100.00;100326.97;10411855;28;20112;-70
2024/01/15 01:34:50;;;;;;;0.70;0.70;;;;;;;2.64;100.00;100318.88;10411411;28;20041;-70
2024/01/15 01:39:51;;;;;;;1.08;1.08;;;;;;;2.60;100.00;100318.38;10410986;28;20112;-70
2024/01/15 01:44:51;;;;;;;0.70;0.70;;;;;;;2.50;100.00;100318.50;10416920;28;20033;-70
2024/01/15 01:49:52;;;;;;;0.60;0.60;;;;;;;2.37;100.00;100304.75;10434809;28;20132;-70
2024/01/15 01:54:53;;;;;;;0.70;0.70;;;;;;;2.39;100.00;100312.59;10419589;28;20031;-70
2024/01/15 01:59:55;;;;;;;0.70;0.70;;;;;;;2.36;100.00;100307.56;10418068;28;20056;-70
2024/01/15 02:04:55;;;;;;;0.70;0.70;;;;;;;2.31;100.00;100308.03;10417612;28;20477;-70
2024/01/15 02:09:56;;;;;;;0.80;0.80;;;;;;;2.20;100.00;100314.50;10418600;28;20132;-70
2024/01/15 02:14:56;;;;;;;0.80;0.80;;;;;;;2.10;100.00;100295.06;10418339;28;20106;-70
2024/01/15 02:19:56;;;;;;;2.97;1.15;;;;;;;2.04;100.00;100293.88;10417024;28;20048;-70
2024/01/15 02:24:57;;;;;;;0.70;0.70;;;;;;;1.95;100.00;100291.31;10417815;28;20037;-69
2024/01/15 02:29:57;;;;;;;0.70;0.70;;;;;;;1.82;100.00;100278.38;10418911;28;20095;-70
2024/01/15 02:34:58;;;;;;;0.65;0.65;;;;;;;1.78;100.00;100290.34;10399486;28;20033;-71
2024/01/15 02:39:58;;;;;;;0.73;0.73;;;;;;;1.68;100.00;100284.25;10417739;28;20053;-69
2024/01/15 02:44:58;;;;;;;0.80;0.80;;;;;;;1.89;100.00;100286.59;10417570;28;20424;-69
2024/01/15 02:49:59;;;;;;;0.80;0.80;;;;;;;2.06;100.00;100285.69;10416861;28;20033;-69
2024/01/15 02:54:59;;;;;;;0.52;0.52;;;;;;;2.36;100.00;100296.88;10416825;28;20483;-70
2024/01/15 03:00:00;;;;;;;0.70;0.70;;;;;;;2.44;100.00;100311.13;10416541;28;20045;-70
2024/01/15 03:05:00;;;;;;;0.70;0.70;;;;;;;2.44;100.00;100307.59;10431671;28;20105;-68
2024/01/15 03:10:01;;;;;;;10.40;3.00;;;;;;;2.44;100.00;100294.25;10416302;28;20037;-70
2024/01/15 03:15:01;;;;;;;9.88;2.28;;;;;;;2.27;100.00;100282.66;10432444;28;20033;-70
2024/01/15 03:20:03;;;;;;;12.80;3.17;;;;;;;2.11;100.00;100267.38;10430981;28;20013;-69
2024/01/15 03:25:04;;;;;;;6.63;2.97;;;;;;;2.05;100.00;100274.16;10416887;28;20349;-70
2024/01/15 03:30:05;;;;;;;5.90;3.15;;;;;;;2.20;100.00;100270.91;10421600;28;20334;-70
2024/01/15 03:35:06;;;;;;;18.15;2.67;;;;;;;2.49;100.00;100286.56;10419158;28;20022;-70
2024/01/15 03:40:07;;;;;;;2.97;1.23;;;;;;;2.29;100.00;100262.78;10415925;28;20389;-71
2024/01/15 03:45:07;;;;;;;0.77;0.77;;;;;;;2.12;100.00;100270.88;10414383;28;20072;-70
2024/01/15 03:50:08;;;;;;;0.85;0.85;;;;;;;1.99;100.00;100247.25;10415009;28;20061;-70
2024/01/15 03:55:09;;;;;;;5.70;2.45;;;;;;;1.93;100.00;100254.06;10414920;28;20033;-71
2024/01/15 04:00:09;;;;;;;1.00;1.00;;;;;;;2.05;100.00;100241.28;10414703;28;20029;-71
2024/01/15 04:05:10;;;;;;;0.80;0.80;;;;;;;2.12;100.00;100246.84;10414279;28;20376;-71
2024/01/15 04:10:10;;;;;;;0.70;0.70;;;;;;;2.28;100.00;100250.41;10414053;28;20102;-70
2024/01/15 04:15:11;;;;;;;0.90;0.90;;;;;;;2.30;100.00;100248.44;10414391;28;20037;-70
2024/01/15 04:20:11;;;;;;;0.70;0.70;;;;;;;2.25;100.00;100252.56;10414801;28;20044;-72
2024/01/15 04:25:12;;;;;;;0.75;0.75;;;;;;;2.24;100.00;100245.56;10414498;28;20068;-72
2024/01/15 04:30:12;;;;;;;0.70;0.70;;;;;;;2.12;100.00;100250.34;10412239;28;20069;-71
2024/01/15 04:35:13;;;;;;;0.80;0.80;;;;;;;1.93;100.00;100258.56;10412922;28;20503;-70
2024/01/15 04:40:14;;;;;;;0.75;0.75;;;;;;;1.47;100.00;100266.75;10412925;28;20491;-71
2024/01/15 04:45:15;;;;;;;0.90;0.90;;;;;;;1.17;100.00;100258.16;10413634;28;20029;-71
2024/01/15 04:50:15;;;;;;;0.70;0.70;;;;;;;1.04;100.00;100239.03;10412044;28;20116;-73
2024/01/15 04:55:16;;;;;;;0.80;0.80;;;;;;;0.98;100.00;100215.63;10413061;28;20059;-73
2024/01/15 05:00:16;;;;;;;0.88;0.88;;;;;;;0.90;100.00;100227.06;10412498;28;20068;-75
2024/01/15 05:05:16;;;;;;;0.75;0.75;;;;;;;0.87;100.00;100203.38;10412960;28;20446;-72
2024/01/15 05:10:17;;;;;;;0.63;0.63;;;;;;;0.87;100.00;100207.88;10413035;28;20041;-71
2024/01/15 05:15:17;;;;;;;0.80;0.80;;;;;;;0.93;100.00;100200.13;10412828;28;20045;-71
2024/01/15 05:20:18;;;;;;;0.90;0.90;;;;;;;1.04;100.00;100211.53;10418003;28;20052;-71
2024/01/15 05:25:18;;;;;;;0.80;0.80;;;;;;;1.15;100.00;100216.66;10420574;28;20111;-71
2024/01/15 05:30:18;;;;;;;0.85;0.85;;;;;;;1.22;100.00;100207.03;10435495;28;20069;-71
2024/01/15 05:35:19;;;;;;;0.90;0.90;;;;;;;1.27;100.00;100204.72;10420267;28;20053;-70
2024/01/15 05:40:19;;;;;;;0.70;0.70;;;;;;;1.36;100.00;100187.78;10436501;28;20045;-71
2024/01/15 05:45:19;;;;;;;0.80;0.80;;;;;;;1.43;100.00;100196.00;10420202;28;20029;-71
2024/01/15 05:50:20;;;;;;;0.80;0.80;;;;;;;1.44;100.00;100187.03;10420009;28;20026;-71
2024/01/15 05:55:20;;;;;;;0.70;0.70;;;;;;;1.44;100.00;100187.03;10419558;28;20033;-70
2024/01/15 06:00:21;;;;;;;0.80;0.80;;;;;;;1.35;100.00;100194.13;10423417;28;20025;-71
2024/01/15 06:05:21;;;;;;;0.70;0.70;;;;;;;1.39;100.00;100176.81;10425675;28;20032;-71
2024/01/15 06:10:21;;;;;;;0.70;0.70;;;;;;;1.36;100.00;100224.31;10418915;28;20053;-71
2024/01/15 06:15:22;;;;;;;0.73;0.73;;;;;;;1.05;100.00;100224.69;10418700;28;20057;-71
2024/01/15 06:20:22;;;;;;;0.70;0.70;;;;;;;0.89;100.00;100213.88;10416217;28;20030;-70
2024/01/15 06:25:23;;;;;;;1.05;1.05;;;;;;;0.85;100.00;100204.53;10417523;28;20033;-71
2024/01/15 06:30:23;;;;;;;0.60;0.60;;;;;;;0.97;100.00;100200.63;10416179;28;20029;-70
2024/01/15 06:35:23;;;;;;;0.77;0.77;;;;;;;1.05;100.00;100202.53;10418215;28;20107;-69
2024/01/15 06:40:24;;;;;;;0.90;0.90;;;;;;;1.04;100.00;100195.53;10418599;28;20140;-69
2024/01/15 06:45:25;;;;;;;0.75;0.75;;;;;;;1.00;100.00;100184.34;10418902;28;20055;-68
2024/01/15 06:50:25;;;;;;;1.00;1.00;;;;;;;1.10;100.00;100176.25;10416503;28;20116;-70
2024/01/15 06:55:26;;;;;;;0.60;0.60;;;;;;;1.25;100.00;100197.88;10415904;28;20064;-69
2024/01/15 07:00:27;;;;;;;0.70;0.70;;;;;;;1.36;100.00;100192.28;10416600;28;20026;-71
2024/01/15 07:05:30;;;;;;;0.70;0.70;;;;;;;1.43;100.00;100197.84;10416788;28;20029;-70
2024/01/15 07:10:30;;;;;;;0.70;0.70;;;;;;;1.52;100.00;100173.72;10416483;28;20346;-70
2024/01/15 07:15:30;;;;;;;0.80;0.80;;;;;;;1.51;100.00;100160.56;10415878;28;20030;-69
2024/01/15 07:20:31;;;;;;;0.70;0.70;;;;;;;1.48;100.00;100150.19;10416933;28;20060;-69
2024/01/15 07:25:31;;;;;;;0.70;0.70;;;;;;;1.48;100.00;100161.69;10418586;28;20120;-70
2024/01/15 07:30:32;;;;;;;0.80;0.80;;;;;;;1.51;100.00;100158.72;10420346;28;20465;-69
2024/01/15 07:35:32;;;;;;;0.60;0.60;;;;;;;1.58;100.00;100158.94;10436033;28;20148;-71
2024/01/15 07:40:32;;;;;;;0.80;0.80;;;;;;;1.50;100.00;100172.19;10417589;28;20056;-69
2024/01/15 07:45:33;;;;;;;0.60;0.60;;;;;;;1.51;100.00;100174.72;10417912;28;20118;-70
2024/01/15 07:50:33;;;;;;;0.80;0.80;;;;;;;1.40;100.00;100188.31;10416499;28;20045;-70
2024/01/15 07:55:33;;;;;;;0.60;0.60;;;;;;;1.54;100.00;100193.09;10417080;28;20390;-69
2024/01/15 08:00:34;;;;;;;0.70;0.70;;;;;;;1.50;100.00;100199.75;10415047;28;20100;-69
2024/01/15 08:05:34;;;;;;;0.73;0.73;;;;;;;1.49;100.00;100195.38;10430311;28;20112;-69
2024/01/15 08:10:35;;;;;;;0.98;0.98;;;;;;;1.43;100.00;100185.34;10415311;28;20326;-70
2024/01/15 08:15:35;;;;;;;0.70;0.70;;;;;;;1.46;100.00;100187.69;10414392;28;20484;-71
2024/01/15 08:20:36;;;;;;;0.70;0.70;;;;;;;1.56;100.00;100195.59;10429419;28;20025;-71
2024/01/15 08:25:37;;;;;;;0.77;0.77;;;;;;;1.66;100.00;100201.69;10414639;28;20033;-70
2024/01/15 08:30:37;;;;;;;1.02;1.02;;;;;;;2.12;100.00;100202.25;10414651;28;20033;-71
2024/01/15 08:35:37;;;;;;;0.60;0.60;;;;;;;1.83;100.00;100200.78;10418363;28;20040;-70
2024/01/15 08:40:38;;;;;;;0.70;0.70;;;;;;;1.88;100.00;100197.63;10411671;28;20477;-71
2024/01/15 08:45:38;;;;;;;0.80;0.80;;;;;;;2.35;100.00;100199.84;10413456;28;20034;-72
2024/01/15 08:50:39;;;;;;;0.70;0.70;;;;;;;2.62;100.00;100203.28;10428879;28;20071;-71
2024/01/15 08:55:39;;;;;;;0.70;0.70;;;;;;;3.59;100.00;100207.84;10411916;28;20128;-70
2024/01/15 09:00:40;;;;;;;0.73;0.73;;;;;;;4.08;100.00;100212.25;10412608;28;20021;-70
2024/01/15 09:05:40;;;;;;;0.70;0.70;;;;;;;3.33;100.00;100226.78;10411827;28;20063;-69
2024/01/15 09:10:41;;;;;;;0.65;0.65;;;;;;;2.76;100.00;100229.38;10427455;28;20033;-71
2024/01/15 09:15:42;;;;;;;0.60;0.60;;;;;;;2.54;100.00;100226.28;10411885;28;20030;-71
2024/01/15 09:20:43;;;;;;;1.73;1.73;;;;;;;2.49;100.00;100220.63;10412656;28;20025;-71
2024/01/15 09:25:43;;;;;;;9.57;8.73;;;;;;;2.68;100.00;100224.00;10412437;28;20135;-69
2024/01/15 09:30:45;;;;;;;0.70;0.70;;;;;;;3.00;100.00;100216.06;10412167;28;20064;-70
2024/01/15 09:35:45;;;;;;;0.70;0.70;;;;;;;3.03;100.00;100226.44;10427033;28;20037;-70
2024/01/15 09:40:46;;;;;;;0.68;0.68;;;;;;;3.03;100.00;100222.91;10427761;28;20037;-70
2024/01/15 09:45:46;;;;;;;0.90;0.90;;;;;;;3.05;100.00;100231.59;10410329;28;20147;-71
2024/01/15 09:50:46;;;;;;;0.60;0.60;;;;;;;2.62;100.00;100216.66;10412217;28;20390;-71
2024/01/15 09:55:47;;;;;;;0.98;0.98;;;;;;;2.31;100.00;100233.25;10427311;28;20084;-71
2024/01/15 10:00:49;;;;;;;0.50;0.50;;;;;;;1.95;100.00;100244.06;10410147;28;20382;-70
2024/01/15 10:05:51;;;;;;;0.80;0.80;;;;;;;1.78;100.00;100255.63;10431966;28;20108;-71
2024/01/15 10:10:51;;;;;;;0.70;0.70;;;;;;;1.83;100.00;100253.34;10400739;28;20453;-69
2024/01/15 10:15:51;;;;;;;2.03;1.90;;;;;;;1.92;100.00;100257.75;10418548;28;20045;-71
2024/01/15 10:20:52;;;;;;;0.70;0.70;;;;;;;2.15;100.00;100262.53;10399986;28;20025;-70
2024/01/15 10:25:52;;;;;;;0.80;0.80;;;;;;;2.15;100.00;100257.19;10419633;28;20036;-69
2024/01/15 10:31:00;;;;;;;0.70;0.70;;;;;;;2.12;100.00;100246.84;10418824;28;20053;-70
2024/01/15 10:36:00;;;;;;;0.70;0.70;;;;;;;2.41;100.00;100252.66;10416451;28;20056;-69
2024/01/15 10:41:01;;;;;;;0.70;0.70;;;;;;;3.05;100.00;100244.16;10416723;28;20032;-70
2024/01/15 10:46:02;;;;;;;0.60;0.60;;;;;;;2.74;100.00;100264.31;10416931;28;20040;-69
2024/01/15 10:51:10;;;;;;;0.90;0.90;;;;;;;2.71;100.00;100263.78;10416851;28;20064;-70
2024/01/15 10:56:11;;;;;;;0.70;0.70;;;;;;;2.82;100.00;100276.03;10418351;28;20101;-71
2024/01/15 11:01:11;;;;;;;0.68;0.68;;;;;;;3.17;100.00;100264.22;10421566;28;20021;-69
2024/01/15 11:06:22;;;;;;;0.80;0.80;;;;;;;3.48;100.00;100267.09;10422804;28;20095;-70
2024/01/15 11:11:23;;;;;;;0.60;0.60;;;;;;;3.49;100.00;100250.88;10418600;28;20021;-70
2024/01/15 11:16:23;;;;;;;0.60;0.60;;;;;;;3.39;100.00;100258.22;10417412;28;20029;-71
2024/01/15 11:21:25;;;;;;;0.98;0.98;;;;;;;3.60;100.00;100255.03;10417456;28;20475;-70
2024/01/15 11:26:44;;;;;;;0.70;0.70;;;;;;;4.21;100.00;100252.75;10399534;28;20037;-69
2024/01/15 11:31:47;;;;;;;0.60;0.60;;;;;;;4.12;100.00;100261.84;10432232;28;20072;-70
2024/01/15 11:36:50;;;;;;;0.60;0.60;;;;;;;3.65;100.00;100292.03;10415844;28;20084;-70
2024/01/15 11:41:51;;;;;;;0.70;0.70;;;;;;;3.01;100.00;100303.31;10416927;28;20108;-70
2024/01/15 11:46:58;;;;;;;0.50;0.50;;;;;;;2.70;100.00;100310.22;10415846;28;20104;-70
2024/01/15 11:51:59;;;;;;;0.70;0.70;;;;;;;2.62;100.00;100308.38;10432069;28;20384;-69
2024/01/15 11:57:00;;;;;;;1.25;1.23;;;;;;;2.70;100.00;100294.19;10415899;28;20113;-70
2024/01/15 12:02:01;;;;;;;0.73;0.73;;;;;;;2.60;100.00;100299.66;10400714;28;20065;-69
2024/01/15 12:07:02;;;;;;;0.85;0.85;;;;;;;2.54;100.00;100301.13;10415165;28;20033;-71
2024/01/15 12:12:07;;;;;;;0.70;0.70;;;;;;;3.17;100.00;100315.06;10414153;28;20376;-69
2024/01/15 12:17:07;;;;;;;0.70;0.70;;;;;;;4.46;100.00;100325.88;10430222;28;20076;-70
2024/01/15 12:22:09;;;;;;;0.82;0.82;;;;;;;5.21;100.00;100317.38;10413782;28;20037;-70
2024/01/15 12:27:09;;;;;;;0.70;0.70;;;;;;;5.57;100.00;100320.28;10413807;28;20033;-70
2024/01/15 12:32:12;;;;;;;16.02;5.47;;;;;;;5.77;100.00;100319.81;10412726;28;20029;-72
2024/01/15 12:37:12;;;;;;;0.68;0.68;;;;;;;5.66;100.00;100323.75;10428658;28;20128;-70
2024/01/15 12:42:16;;;;;;;0.70;0.70;;;;;;;6.04;100.00;100334.56;10413694;28;20124;-70
2024/01/15 12:47:18;;;;;;;0.60;0.60;;;;;;;5.24;100.00;100314.31;10395421;28;20026;-69
2024/01/15 12:52:19;;;;;;;0.50;0.50;;;;;;;4.49;100.00;100322.88;10411697;28;20456;-70
2024/01/15 12:57:19;;;;;;;0.40;0.40;;;;;;;4.14;100.00;100333.00;10411368;28;20037;-69
2024/01/15 13:02:20;;;;;;;0.60;0.60;;;;;;;4.05;100.00;100342.06;10428053;28;20025;-70
2024/01/15 13:07:20;;;;;;;1.35;1.35;;;;;;;4.77;100.00;100334.00;10412131;28;20410;-70
2024/01/15 13:12:22;;;;;;;0.50;0.50;;;;;;;4.64;100.00;100382.00;10428146;28;20411;-70
2024/01/15 13:17:22;;;;;;;1.27;1.27;;;;;;;3.24;100.00;100397.19;10428767;28;20030;-69
2024/01/15 13:22:24;;;;;;;0.50;0.50;;;;;;;2.73;100.00;100372.22;10410472;28;20029;-69
2024/01/15 13:27:24;;;;;;;0.60;0.60;;;;;;;2.99;100.00;100382.03;10428158;28;20453;-71
2024/01/15 13:32:26;;;;;;;0.60;0.60;;;;;;;2.61;100.00;100375.34;10413873;28;20112;-72
2024/01/15 13:37:27;;;;;;;0.60;0.60;;;;;;;2.55;100.00;100371.47;10415627;28;20128;-70
2024/01/15 13:42:27;;;;;;;0.60;0.60;;;;;;;2.49;100.00;100372.09;10435373;28;20066;-72
2024/01/15 13:47:27;;;;;;;0.80;0.80;;;;;;;2.47;100.00;100369.59;10401450;28;20034;-70
2024/01/15 13:52:28;;;;;;;0.70;0.70;;;;;;;2.99;100.00;100374.84;10418772;28;20033;-70
2024/01/15 13:57:28;;;;;;;6.15;4.95;;;;;;;3.07;100.00;100371.38;10418229;28;20029;-70
2024/01/15 14:02:29;;;;;;;0.98;0.98;;;;;;;2.77;100.00;100375.41;10418573;28;20108;-71
2024/01/15 14:07:29;;;;;;;0.90;0.90;;;;;;;2.72;100.00;100388.44;10419230;28;20116;-72
2024/01/15 14:12:30;;;;;;;0.90;0.90;;;;;;;2.96;100.00;100391.22;10418135;28;20464;-70
2024/01/15 14:17:30;;;;;;;1.08;1.08;;;;;;;2.67;100.00;100406.78;10419984;28;20026;-72
2024/01/15 14:22:30;;;;;;;0.80;0.80;;;;;;;2.56;100.00;100418.59;10419288;28;20422;-70
2024/01/15 14:27:32;;;;;;;0.75;0.75;;;;;;;2.34;100.00;100419.94;10416665;28;20112;-70
2024/01/15 14:32:32;;;;;;;0.75;0.75;;;;;;;2.20;100.00;100424.03;10418488;28;20454;-70
2024/01/15 14:37:33;;;;;;;0.70;0.70;;;;;;;2.13;100.00;100416.78;10419622;28;20148;-70
2024/01/15 14:42:36;;;;;;;0.90;0.90;;;;;;;2.00;100.00;100426.00;10416610;28;20030;-69
2024/01/15 14:47:38;;;;;;;0.80;0.80;;;;;;;2.02;100.00;100433.88;10416677;28;20037;-69
2024/01/15 14:52:42;;;;;;;0.80;0.80;;;;;;;2.00;100.00;100426.00;10416499;28;20035;-69
2024/01/15 14:57:42;;;;;;;0.70;0.70;;;;;;;2.19;100.00;100433.00;10417355;28;20033;-70
2024/01/15 15:02:42;;;;;;;0.80;0.80;;;;;;;2.70;100.00;100447.41;10417070;28;20422;-70
2024/01/15 15:07:43;;;;;;;0.80;0.80;;;;;;;2.85;100.00;100465.56;10415629;28;20029;-69
2024/01/15 15:12:44;;;;;;;0.75;0.75;;;;;;;2.76;100.00;100467.34;10417219;28;20033;-69
2024/01/15 15:17:44;;;;;;;1.08;1.08;;;;;;;2.60;100.00;100470.72;10431220;28;20053;-69
2024/01/15 15:22:45;;;;;;;2.10;2.05;;;;;;;2.32;100.00;100478.88;10431751;28;20318;-69
2024/01/15 15:27:45;;;;;;;3.97;3.63;;;;;;;2.51;100.00;100493.88;10414899;28;20123;-69
